createdAt,value
2023-01-23T00:01:06.689Z,15.48
2023-01-23T00:03:34.147Z,12.38
2023-01-23T00:06:06.581Z,11.98
2023-01-23T00:08:33.504Z,13.10
2023-01-23T00:11:00.314Z,13.88
2023-01-23T00:13:26.718Z,13.07
2023-01-23T00:15:53.192Z,17.02
2023-01-23T00:18:19.646Z,11.40
2023-01-23T00:20:46.148Z,16.08
2023-01-23T00:23:12.691Z,12.13
2023-01-23T00:25:39.337Z,21.80
2023-01-23T00:28:06.407Z,11.80
2023-01-23T00:30:33.674Z,12.02
2023-01-23T00:33:00.501Z,14.48
2023-01-23T00:35:26.880Z,13.40
2023-01-23T00:37:53.419Z,15.88
2023-01-23T00:40:20.221Z,14.60
2023-01-23T00:42:46.815Z,12.18
2023-01-23T00:45:13.531Z,14.23
2023-01-23T00:47:39.997Z,12.07
2023-01-23T00:50:06.557Z,12.13
2023-01-23T00:52:32.976Z,14.55
2023-01-23T00:54:59.416Z,13.48
2023-01-23T00:57:25.845Z,11.57
2023-01-23T00:59:52.210Z,14.05
2023-01-23T01:02:18.779Z,12.43
2023-01-23T01:04:45.264Z,11.00
2023-01-23T01:07:11.811Z,10.95
2023-01-23T01:09:38.255Z,11.77
2023-01-23T01:12:04.944Z,15.85
2023-01-23T01:14:31.430Z,11.93
2023-01-23T01:16:58.669Z,10.73
2023-01-23T01:19:25.248Z,10.52
2023-01-23T01:21:51.899Z,10.35
2023-01-23T01:24:18.390Z,10.88
2023-01-23T01:26:44.955Z,10.07
2023-01-23T01:29:11.476Z,9.98
2023-01-23T01:31:38.163Z,10.60
2023-01-23T01:34:04.561Z,10.07
2023-01-23T01:36:31.270Z,10.23
2023-01-23T01:38:57.678Z,11.27
2023-01-23T01:41:24.400Z,10.25
2023-01-23T01:43:53.223Z,10.57
2023-01-23T01:46:30.752Z,10.93
2023-01-23T01:49:03.472Z,10.63
2023-01-23T01:51:51.137Z,11.40
2023-01-23T01:54:36.975Z,10.85
2023-01-23T01:57:32.782Z,11.27
2023-01-23T02:00:04.745Z,10.98
2023-01-23T02:02:45.563Z,11.10
2023-01-23T02:05:19.935Z,11.32
2023-01-23T02:07:54.427Z,12.35
2023-01-23T02:10:22.528Z,12.55
2023-01-23T02:12:51.148Z,12.43
2023-01-23T02:15:20.288Z,11.45
2023-01-23T02:17:48.317Z,13.07
2023-01-23T02:20:25.962Z,12.80
2023-01-23T02:22:58.174Z,11.88
2023-01-23T02:25:37.536Z,14.18
2023-01-23T02:28:04.450Z,12.90
2023-01-23T02:30:31.352Z,14.85
2023-01-23T02:33:31.274Z,13.27
2023-01-23T02:35:59.577Z,12.77
2023-01-23T02:38:31.489Z,13.50
2023-01-23T02:41:01.246Z,13.60
2023-01-23T02:43:34.981Z,14.48
2023-01-23T02:46:11.082Z,13.82
2023-01-23T02:48:40.056Z,13.82
2023-01-23T02:51:07.431Z,13.45
2023-01-23T02:53:34.146Z,18.88
2023-01-23T02:56:00.746Z,14.07
2023-01-23T02:58:45.909Z,14.55
2023-01-23T03:01:12.404Z,16.38
2023-01-23T03:03:42.442Z,14.18
2023-01-23T03:06:09.579Z,14.70
2023-01-23T03:08:36.736Z,15.02
2023-01-23T03:11:04.526Z,15.65
2023-01-23T03:13:31.503Z,19.05
2023-01-23T03:15:58.189Z,14.70
2023-01-23T03:18:27.624Z,15.07
2023-01-23T03:20:54.261Z,14.50
2023-01-23T03:23:21.014Z,15.68
2023-01-23T03:25:49.023Z,15.35
2023-01-23T03:28:33.987Z,15.02
2023-01-23T03:31:00.419Z,15.60
2023-01-23T03:33:26.911Z,15.60
2023-01-23T03:35:53.330Z,18.05
2023-01-23T03:38:19.751Z,15.45
2023-01-23T03:41:09.095Z,15.13
2023-01-23T03:43:35.507Z,19.57
2023-01-23T03:46:02.234Z,16.83
2023-01-23T03:48:28.693Z,15.57
2023-01-23T03:50:55.119Z,18.65
2023-01-23T03:53:21.600Z,15.65
2023-01-23T03:55:48.247Z,15.93
2023-01-23T03:58:14.616Z,17.55
2023-01-23T04:00:41.055Z,14.85
2023-01-23T04:03:09.147Z,15.27
2023-01-23T04:05:35.675Z,15.57
2023-01-23T04:08:02.178Z,15.18
2023-01-23T04:10:28.623Z,16.15
2023-01-23T04:12:55.067Z,15.13
2023-01-23T04:15:21.500Z,17.50
2023-01-23T04:17:47.884Z,17.17
2023-01-23T04:20:15.055Z,15.10
2023-01-23T04:22:41.569Z,14.52
2023-01-23T04:25:08.445Z,13.95
2023-01-23T04:27:34.833Z,18.58
2023-01-23T04:30:01.442Z,14.20
2023-01-23T04:32:27.858Z,13.27
2023-01-23T04:34:54.402Z,15.18
2023-01-23T04:37:21.093Z,14.10
2023-01-23T04:39:47.818Z,13.77
2023-01-23T04:42:14.199Z,14.35
2023-01-23T04:44:40.631Z,14.27
2023-01-23T04:47:07.009Z,13.55
2023-01-23T04:49:33.424Z,13.75
2023-01-23T04:51:59.824Z,13.38
2023-01-23T04:54:26.489Z,13.27
2023-01-23T04:56:54.119Z,14.40
2023-01-23T04:59:21.576Z,13.43
2023-01-23T05:01:48.257Z,14.75
2023-01-23T05:04:14.733Z,15.65
2023-01-23T05:06:41.132Z,13.70
2023-01-23T05:09:07.728Z,14.82
2023-01-23T05:11:34.663Z,14.10
2023-01-23T05:14:01.200Z,14.82
2023-01-23T05:16:27.604Z,15.35
2023-01-23T05:18:54.280Z,16.33
2023-01-23T05:21:20.690Z,14.82
2023-01-23T05:23:47.124Z,17.65
2023-01-23T05:26:13.540Z,17.13
2023-01-23T05:28:40.096Z,19.80
2023-01-23T05:31:06.762Z,16.52
2023-01-23T05:33:33.331Z,16.25
2023-01-23T05:36:00.654Z,16.92
2023-01-23T05:38:27.138Z,20.05
2023-01-23T05:40:54.044Z,17.90
2023-01-23T05:43:20.625Z,17.67
2023-01-23T05:45:47.130Z,20.38
2023-01-23T05:48:13.552Z,20.55
2023-01-23T05:50:40.505Z,19.27
2023-01-23T05:53:07.116Z,24.23
2023-01-23T05:55:33.512Z,19.17
2023-01-23T05:58:00.132Z,20.55
2023-01-23T06:00:26.769Z,19.15
2023-01-23T06:02:53.279Z,18.85
2023-01-23T06:05:20.095Z,19.38
2023-01-23T06:07:46.547Z,30.42
2023-01-23T06:10:12.964Z,18.08
2023-01-23T06:12:39.451Z,20.13
2023-01-23T06:15:06.534Z,20.30
2023-01-23T06:17:32.980Z,21.02
2023-01-23T06:19:59.709Z,20.35
2023-01-23T06:22:26.143Z,20.75
2023-01-23T06:24:52.719Z,21.50
2023-01-23T06:27:19.361Z,19.75
2023-01-23T06:29:45.915Z,19.83
2023-01-23T06:32:12.598Z,20.33
2023-01-23T06:34:39.755Z,21.60
2023-01-23T06:37:06.159Z,22.70
2023-01-23T06:39:34.114Z,22.77
2023-01-23T06:42:00.698Z,24.73
2023-01-23T06:44:27.215Z,22.95
2023-01-23T06:46:53.870Z,25.05
2023-01-23T06:49:20.566Z,26.73
2023-01-23T06:51:47.270Z,22.23
2023-01-23T06:54:13.661Z,25.77
2023-01-23T06:56:40.061Z,21.50
2023-01-23T06:59:06.563Z,22.25
2023-01-23T07:01:33.043Z,21.52
2023-01-23T07:03:59.537Z,27.98
2023-01-23T07:06:26.048Z,27.13
2023-01-23T07:08:52.619Z,25.58
2023-01-23T07:11:19.496Z,20.92
2023-01-23T07:13:45.917Z,21.67
2023-01-23T07:16:12.458Z,27.55
2023-01-23T07:18:39.146Z,21.10
2023-01-23T07:21:06.489Z,21.70
2023-01-23T07:23:33.944Z,24.38
2023-01-23T07:26:07.288Z,24.60
2023-01-23T07:28:33.718Z,25.98
2023-01-23T07:31:00.376Z,21.17
2023-01-23T07:33:26.978Z,25.42
2023-01-23T07:35:53.631Z,28.58
2023-01-23T07:38:20.952Z,29.95
2023-01-23T07:40:47.330Z,23.10
2023-01-23T07:43:13.744Z,26.33
2023-01-23T07:45:40.230Z,22.42
2023-01-23T07:48:06.711Z,23.08
2023-01-23T07:50:33.609Z,25.95
2023-01-23T07:53:00.271Z,23.65
2023-01-23T07:55:26.895Z,21.52
2023-01-23T07:57:53.468Z,22.88
2023-01-23T08:00:22.385Z,21.63
2023-01-23T08:02:51.285Z,25.27
2023-01-23T08:05:17.683Z,24.15
2023-01-23T08:07:44.140Z,24.77
2023-01-23T08:10:11.260Z,24.45
2023-01-23T08:12:37.684Z,23.52
2023-01-23T08:15:04.837Z,26.75
2023-01-23T08:17:31.412Z,25.17
2023-01-23T08:19:57.827Z,20.90
2023-01-23T08:22:24.435Z,23.15
2023-01-23T08:24:50.843Z,23.25
2023-01-23T08:27:17.252Z,27.73
2023-01-23T08:29:43.784Z,22.60
2023-01-23T08:32:10.650Z,21.40
2023-01-23T08:34:37.129Z,23.23
2023-01-23T08:37:04.635Z,24.23
2023-01-23T08:39:31.332Z,24.70
2023-01-23T08:41:57.730Z,22.58
2023-01-23T08:44:24.663Z,25.38
2023-01-23T08:46:51.186Z,23.45
2023-01-23T08:49:20.396Z,25.05
2023-01-23T08:51:46.964Z,24.70
2023-01-23T08:54:13.584Z,21.80
2023-01-23T08:56:41.368Z,22.95
2023-01-23T08:59:08.296Z,22.02
2023-01-23T09:01:34.977Z,27.23
2023-01-23T09:04:01.610Z,26.70
2023-01-23T09:06:28.119Z,22.77
2023-01-23T09:08:54.673Z,26.17
2023-01-23T09:11:22.784Z,25.42
2023-01-23T09:13:50.824Z,22.65
2023-01-23T09:16:18.807Z,27.30
2023-01-23T09:18:45.330Z,27.05
2023-01-23T09:21:16.275Z,23.40
2023-01-23T09:23:43.257Z,24.48
2023-01-23T09:26:12.391Z,21.80
2023-01-23T09:28:42.243Z,24.52
2023-01-23T09:31:12.976Z,23.65
2023-01-23T09:33:40.989Z,24.80
2023-01-23T09:36:08.347Z,21.05
2023-01-23T09:38:34.777Z,25.58
2023-01-23T09:41:09.360Z,24.38
2023-01-23T09:43:45.383Z,24.05
2023-01-23T09:46:37.721Z,27.38
2023-01-23T09:49:24.592Z,25.60
2023-01-23T09:52:11.915Z,27.80
2023-01-23T09:54:46.680Z,25.30
2023-01-23T09:57:25.955Z,25.38
2023-01-23T10:00:03.975Z,28.58
2023-01-23T10:02:30.716Z,25.17
2023-01-23T10:04:59.484Z,25.92
2023-01-23T10:07:31.727Z,23.13
2023-01-23T10:10:17.517Z,28.95
2023-01-23T10:12:52.720Z,31.95
2023-01-23T10:15:42.668Z,24.73
2023-01-23T10:18:21.695Z,28.45
2023-01-23T10:21:03.980Z,24.10
2023-01-23T10:23:36.172Z,29.13
2023-01-23T10:26:04.137Z,32.30
2023-01-23T10:28:38.258Z,26.60
2023-01-23T10:31:18.360Z,28.00
2023-01-23T10:36:58.143Z,28.02
2023-01-23T10:39:33.042Z,30.10
2023-01-23T10:42:02.459Z,29.33
2023-01-23T10:44:29.387Z,27.15
2023-01-23T10:47:02.256Z,29.73
2023-01-23T10:49:32.963Z,23.27
2023-01-23T10:51:59.638Z,24.80
2023-01-23T10:54:33.074Z,25.80
2023-01-23T10:57:03.140Z,31.40
2023-01-23T10:59:37.230Z,30.42
2023-01-23T11:02:12.930Z,33.30
2023-01-23T11:04:41.972Z,33.22
2023-01-23T11:07:23.462Z,36.40
2023-01-23T11:10:00.478Z,29.40
2023-01-23T11:12:32.218Z,30.55
2023-01-23T11:15:26.216Z,30.38
2023-01-23T11:17:54.743Z,28.33
2023-01-23T11:20:26.931Z,29.45
2023-01-23T11:23:08.570Z,31.33
2023-01-23T11:25:43.892Z,31.52
2023-01-23T11:28:35.174Z,31.42
2023-01-23T11:31:16.102Z,28.20
2023-01-23T11:33:54.893Z,34.85
2023-01-23T11:36:33.212Z,31.52
2023-01-23T11:39:16.681Z,34.22
2023-01-23T11:41:45.231Z,28.10
2023-01-23T11:44:18.716Z,34.83
2023-01-23T11:47:14.870Z,38.78
2023-01-23T11:50:02.492Z,28.30
2023-01-23T11:52:36.504Z,27.50
2023-01-23T11:55:30.470Z,27.10
2023-01-23T11:58:14.972Z,31.63
2023-01-23T12:00:51.225Z,31.10
2023-01-23T12:03:36.624Z,31.13
2023-01-23T12:06:28.887Z,30.55
2023-01-23T12:09:33.730Z,27.92
2023-01-23T12:12:21.236Z,28.55
2023-01-23T12:15:14.808Z,31.55
2023-01-23T12:17:47.058Z,30.70
2023-01-23T12:20:28.635Z,28.80
2023-01-23T12:23:17.092Z,27.92
2023-01-23T12:25:53.579Z,27.75
2023-01-23T12:28:29.079Z,29.17
2023-01-23T12:31:00.948Z,32.67
2023-01-23T12:33:50.301Z,36.45
2023-01-23T12:37:16.612Z,37.85
2023-01-23T12:40:12.983Z,36.85
2023-01-23T12:43:10.196Z,28.83
2023-01-23T12:45:41.576Z,30.70
2023-01-23T12:48:16.061Z,28.17
2023-01-23T12:50:48.565Z,34.30
2023-01-23T12:53:22.036Z,27.92
2023-01-23T12:56:03.823Z,30.48
2023-01-23T12:58:35.172Z,30.50
2023-01-23T13:01:08.039Z,29.63
2023-01-23T13:03:46.444Z,28.38
2023-01-23T13:06:34.762Z,28.20
2023-01-23T13:09:19.395Z,27.02
2023-01-23T13:12:11.663Z,26.55
2023-01-23T13:15:06.491Z,27.00
2023-01-23T13:17:49.911Z,30.83
2023-01-23T13:21:13.365Z,25.52
2023-01-23T13:23:40.067Z,27.92
2023-01-23T13:26:26.586Z,29.00
2023-01-23T13:28:58.548Z,28.83
2023-01-23T13:31:33.934Z,30.67
2023-01-23T13:34:15.043Z,25.95
2023-01-23T13:36:43.832Z,27.38
2023-01-23T13:39:13.273Z,24.30
2023-01-23T13:41:39.804Z,26.63
2023-01-23T13:44:35.836Z,24.95
2023-01-23T14:21:55.102Z,27.73
2023-01-23T14:24:29.149Z,30.65
2023-01-23T14:27:08.841Z,28.60
2023-01-23T14:32:02.791Z,28.75
2023-01-23T14:34:29.347Z,25.77
2023-01-23T14:37:04.429Z,32.78
2023-01-23T14:39:34.240Z,30.77
2023-01-23T14:42:03.812Z,28.17
2023-01-23T14:44:34.667Z,33.33
2023-01-23T14:49:34.142Z,29.33
2023-01-23T14:52:03.869Z,30.45
2023-01-23T14:54:33.259Z,34.38
2023-01-23T14:57:05.771Z,32.83
2023-01-23T14:59:41.723Z,31.80
2023-01-23T15:02:31.063Z,29.05
2023-01-23T15:05:12.628Z,42.47
2023-01-23T15:07:43.636Z,32.80
2023-01-23T15:10:30.716Z,32.90
2023-01-23T15:13:05.150Z,31.85
2023-01-23T15:15:34.448Z,30.30
2023-01-23T15:18:02.046Z,30.27
2023-01-23T15:20:43.365Z,31.73
2023-01-23T15:23:18.863Z,29.17
2023-01-23T15:25:54.639Z,27.77
2023-01-23T15:28:31.663Z,29.95
2023-01-23T15:30:58.382Z,31.55
2023-01-23T15:33:28.709Z,34.35
2023-01-23T15:38:29.714Z,31.92
2023-01-23T15:40:57.009Z,34.35
2023-01-23T15:43:23.474Z,34.22
2023-01-23T15:45:50.130Z,36.60
2023-01-23T15:48:16.550Z,35.05
2023-01-23T15:50:42.967Z,41.00
2023-01-23T15:53:14.239Z,43.45
2023-01-23T15:55:42.538Z,35.03
2023-01-23T15:58:14.933Z,33.13
2023-01-23T16:00:42.363Z,34.20
2023-01-23T16:03:08.949Z,35.72
2023-01-23T16:05:37.302Z,36.65
2023-01-23T16:08:05.794Z,36.25
2023-01-23T16:10:38.410Z,39.40
2023-01-23T16:13:05.198Z,35.28
2023-01-23T16:15:34.054Z,30.83
2023-01-23T16:18:03.114Z,35.00
2023-01-23T16:20:38.485Z,39.17
2023-01-23T16:23:15.087Z,38.83
2023-01-23T16:25:45.052Z,37.05
2023-01-23T16:33:09.988Z,31.48
2023-01-23T16:35:37.334Z,34.92
2023-01-23T16:38:04.776Z,34.42
2023-01-23T16:40:32.072Z,33.70
2023-01-23T16:43:00.202Z,35.67
2023-01-23T16:45:31.807Z,36.20
2023-01-23T16:47:58.893Z,34.05
2023-01-23T16:50:57.446Z,35.72
2023-01-23T16:53:27.220Z,32.97
2023-01-23T16:55:55.907Z,31.77
2023-01-23T16:58:32.558Z,38.53
2023-01-23T17:01:03.804Z,37.35
2023-01-23T17:03:34.387Z,42.00
2023-01-23T17:06:01.420Z,39.55
2023-01-23T17:08:27.966Z,35.75
2023-01-23T17:10:58.463Z,36.75
2023-01-23T17:13:26.542Z,35.35
2023-01-23T17:15:55.652Z,36.13
2023-01-23T17:18:27.385Z,37.28
2023-01-23T17:20:55.145Z,37.45
2023-01-23T17:23:23.070Z,35.40
2023-01-23T17:26:00.511Z,32.58
2023-01-23T17:28:28.098Z,36.47
2023-01-23T17:30:55.431Z,37.95
2023-01-23T17:33:26.259Z,37.45
2023-01-23T17:35:54.147Z,40.58
2023-01-23T17:38:21.929Z,44.15
2023-01-23T17:40:48.722Z,37.22
2023-01-23T17:43:16.493Z,38.35
2023-01-23T17:45:45.845Z,37.60
2023-01-23T17:48:14.829Z,34.87
2023-01-23T17:50:46.531Z,37.10
2023-01-23T17:53:17.374Z,37.22
2023-01-23T17:55:47.898Z,39.45
2023-01-23T17:58:15.232Z,36.53
2023-01-23T18:00:43.952Z,39.10
2023-01-23T18:03:16.998Z,36.90
2023-01-23T18:05:43.613Z,37.97
2023-01-23T18:08:16.912Z,38.83
2023-01-23T18:10:45.234Z,43.50
2023-01-23T18:13:47.030Z,39.13
2023-01-23T18:16:22.691Z,44.63
2023-01-23T18:18:58.593Z,45.28
2023-01-23T18:21:25.595Z,44.00
2023-01-23T18:23:52.290Z,47.67
2023-01-23T18:26:32.554Z,48.92
2023-01-23T18:29:12.509Z,46.95
2023-01-23T18:31:41.867Z,44.88
2023-01-23T18:34:24.250Z,44.17
2023-01-23T18:37:08.305Z,39.95
2023-01-23T18:40:00.145Z,41.08
2023-01-23T18:42:45.730Z,39.42
2023-01-23T18:45:20.729Z,46.22
2023-01-23T18:47:53.430Z,40.83
2023-01-23T18:50:22.902Z,44.65
2023-01-23T18:53:17.489Z,47.67
2023-01-23T18:56:22.320Z,49.78
2023-01-23T18:59:12.131Z,49.75
2023-01-23T19:04:15.823Z,40.65
2023-01-23T19:06:42.542Z,46.97
2023-01-23T19:09:19.240Z,48.92
2023-01-23T19:12:11.632Z,42.72
2023-01-23T19:15:05.521Z,46.28
2023-01-23T19:18:15.007Z,45.90
2023-01-23T19:20:44.394Z,49.17
2023-01-23T19:23:30.505Z,45.42
2023-01-23T19:25:57.295Z,52.13
2023-01-23T19:28:24.233Z,52.15
2023-01-23T19:30:50.833Z,49.25
2023-01-23T19:33:18.700Z,47.47
2023-01-23T19:35:46.695Z,45.42
2023-01-23T19:38:15.119Z,47.70
2023-01-23T19:40:42.471Z,46.47
2023-01-23T19:43:15.644Z,67.55
2023-01-23T19:45:43.359Z,56.05
2023-01-23T19:48:10.628Z,45.60
2023-01-23T19:50:37.767Z,48.47
2023-01-23T19:53:04.580Z,48.55
2023-01-23T19:55:34.293Z,55.10
2023-01-23T19:58:00.997Z,52.42
2023-01-23T20:00:30.787Z,46.97
2023-01-23T20:02:58.107Z,44.78
2023-01-23T20:05:25.544Z,47.05
2023-01-23T20:07:53.808Z,44.92
2023-01-23T20:10:20.587Z,46.92
2023-01-23T20:12:54.586Z,46.50
2023-01-23T20:15:24.098Z,48.47
2023-01-23T20:17:52.265Z,43.20
2023-01-23T20:20:20.256Z,47.08
2023-01-23T20:22:47.040Z,45.47
2023-01-23T20:25:16.163Z,49.53
2023-01-23T20:27:43.410Z,46.25
2023-01-23T20:30:20.423Z,52.13
2023-01-23T20:32:47.069Z,52.63
2023-01-23T20:35:13.631Z,44.08
2023-01-23T20:37:40.186Z,47.15
2023-01-23T20:40:11.422Z,44.83
2023-01-23T20:42:39.138Z,46.45
2023-01-23T20:45:06.830Z,53.85
2023-01-23T20:47:35.922Z,47.08
2023-01-23T20:50:02.448Z,42.45
2023-01-23T20:52:47.554Z,46.20
2023-01-23T20:55:14.032Z,49.97
2023-01-23T20:57:59.209Z,51.55
2023-01-23T21:00:25.975Z,45.60
2023-01-23T21:02:53.291Z,53.53
2023-01-23T21:05:19.987Z,54.90
2023-01-23T21:07:46.714Z,51.15
2023-01-23T21:10:13.139Z,51.83
2023-01-23T21:12:39.573Z,53.25
2023-01-23T21:15:06.560Z,50.72
2023-01-23T21:17:33.177Z,54.00
2023-01-23T21:19:59.564Z,54.60
2023-01-23T21:22:26.010Z,53.47
2023-01-23T21:24:52.429Z,52.20
2023-01-23T21:27:20.914Z,49.20
2023-01-23T21:29:47.749Z,53.47
2023-01-23T21:32:14.234Z,65.47
2023-01-23T21:34:40.899Z,50.95
2023-01-23T21:37:10.817Z,55.05
2023-01-23T21:39:38.355Z,52.45
2023-01-23T21:42:04.846Z,49.90
2023-01-23T21:44:31.985Z,53.08
2023-01-23T21:46:59.834Z,54.25
2023-01-23T21:49:26.523Z,51.50
2023-01-23T21:51:53.197Z,51.30
2023-01-23T21:54:19.735Z,55.25
2023-01-23T21:56:46.106Z,56.00
2023-01-23T21:59:12.567Z,50.67
2023-01-23T22:01:46.778Z,47.03
2023-01-23T22:04:16.593Z,51.20
2023-01-23T22:06:44.226Z,55.80
2023-01-23T22:09:15.440Z,48.42
2023-01-23T22:11:42.297Z,50.50
2023-01-23T22:14:08.977Z,52.92
2023-01-23T22:16:47.859Z,57.38
2023-01-23T22:19:16.928Z,55.97
2023-01-23T22:21:44.273Z,57.65
2023-01-23T22:24:10.754Z,56.28
2023-01-23T22:26:37.499Z,51.00
2023-01-23T22:29:03.942Z,55.50
2023-01-23T22:31:30.478Z,56.38
2023-01-23T22:33:57.039Z,55.03
2023-01-23T22:36:23.502Z,58.65
2023-01-23T22:38:51.872Z,58.85
2023-01-23T22:41:18.909Z,52.38
2023-01-23T22:43:45.319Z,59.35
2023-01-23T22:46:18.941Z,57.05
2023-01-23T22:48:45.528Z,54.10
2023-01-23T22:51:16.006Z,51.35
2023-01-23T22:53:42.664Z,55.08
2023-01-23T22:56:09.928Z,49.75
2023-01-23T22:58:37.341Z,53.33
2023-01-23T23:01:04.643Z,56.20
2023-01-23T23:03:33.179Z,60.10
2023-01-23T23:06:02.808Z,51.17
2023-01-23T23:08:29.569Z,49.03
2023-01-23T23:11:10.048Z,54.53
2023-01-23T23:13:38.750Z,47.85
2023-01-23T23:16:08.409Z,52.65
2023-01-23T23:18:37.446Z,60.90
2023-01-23T23:21:07.994Z,54.70
2023-01-23T23:23:34.910Z,54.95
2023-01-23T23:26:01.653Z,58.78
2023-01-23T23:28:28.810Z,63.08
2023-01-23T23:30:55.293Z,54.13
2023-01-23T23:33:22.262Z,58.33
2023-01-23T23:35:48.719Z,56.53
2023-01-23T23:38:15.765Z,57.13
2023-01-23T23:40:42.272Z,52.90
2023-01-23T23:43:09.710Z,51.83
2023-01-23T23:45:36.391Z,57.70
2023-01-23T23:48:02.931Z,55.13
2023-01-23T23:50:29.985Z,57.50
2023-01-23T23:52:56.393Z,56.70
2023-01-23T23:55:23.226Z,59.35
2023-01-23T23:57:49.746Z,62.35
